sensor_id;sensor_type;location;lat;lon;timestamp;temperature;humidity
32698;DHT22;19087;51.062;3.754;2022-12-05T00:01:37;5.10;99.90
32698;DHT22;19087;51.062;3.754;2022-12-05T00:04:08;4.90;99.90
32698;DHT22;19087;51.062;3.754;2022-12-05T00:06:35;4.90;99.90
32698;DHT22;19087;51.062;3.754;2022-12-05T00:09:04;4.90;99.90
32698;DHT22;19087;51.062;3.754;2022-12-05T00:11:37;4.80;99.90
32698;DHT22;19087;51.062;3.754;2022-12-05T00:14:07;4.70;99.90
32698;DHT22;19087;51.062;3.754;2022-12-05T00:16:43;4.70;99.90
32698;DHT22;19087;51.062;3.754;2022-12-05T00:19:13;4.90;99.90
32698;DHT22;19087;51.062;3.754;2022-12-05T00:21:39;4.90;99.90
32698;DHT22;19087;51.062;3.754;2022-12-05T00:24:07;4.90;99.90
32698;DHT22;19087;51.062;3.754;2022-12-05T00:26:33;5.00;99.90
32698;DHT22;19087;51.062;3.754;2022-12-05T00:29:00;4.90;99.90
32698;DHT22;19087;51.062;3.754;2022-12-05T00:31:26;4.90;99.90
32698;DHT22;19087;51.062;3.754;2022-12-05T00:33:54;4.80;99.90
32698;DHT22;19087;51.062;3.754;2022-12-05T00:36:22;4.90;99.90
32698;DHT22;19087;51.062;3.754;2022-12-05T00:38:49;5.10;99.90
32698;DHT22;19087;51.062;3.754;2022-12-05T00:41:18;4.90;99.90
32698;DHT22;19087;51.062;3.754;2022-12-05T00:43:45;4.90;99.90
32698;DHT22;19087;51.062;3.754;2022-12-05T00:46:16;5.00;99.90
32698;DHT22;19087;51.062;3.754;2022-12-05T00:48:43;4.90;99.90
32698;DHT22;19087;51.062;3.754;2022-12-05T00:51:18;4.90;99.90
32698;DHT22;19087;51.062;3.754;2022-12-05T00:53:45;4.90;99.90
32698;DHT22;19087;51.062;3.754;2022-12-05T00:56:17;4.90;99.90
32698;DHT22;19087;51.062;3.754;2022-12-05T00:58:45;5.00;99.90
32698;DHT22;19087;51.062;3.754;2022-12-05T01:01:18;5.00;99.90
32698;DHT22;19087;51.062;3.754;2022-12-05T01:03:45;4.90;99.90
32698;DHT22;19087;51.062;3.754;2022-12-05T01:06:25;4.90;99.90
32698;DHT22;19087;51.062;3.754;2022-12-05T01:08:53;5.00;99.90
32698;DHT22;19087;51.062;3.754;2022-12-05T01:11:41;4.90;99.90
32698;DHT22;19087;51.062;3.754;2022-12-05T01:14:08;4.80;99.90
32698;DHT22;19087;51.062;3.754;2022-12-05T01:16:40;4.70;99.90
32698;DHT22;19087;51.062;3.754;2022-12-05T01:19:09;4.70;99.90
32698;DHT22;19087;51.062;3.754;2022-12-05T01:21:35;4.90;99.90
32698;DHT22;19087;51.062;3.754;2022-12-05T01:24:17;4.90;99.90
32698;DHT22;19087;51.062;3.754;2022-12-05T01:26:44;4.90;99.90
32698;DHT22;19087;51.062;3.754;2022-12-05T01:29:12;5.00;99.90
32698;DHT22;19087;51.062;3.754;2022-12-05T01:31:39;4.90;99.90
32698;DHT22;19087;51.062;3.754;2022-12-05T01:34:07;5.00;99.90
32698;DHT22;19087;51.062;3.754;2022-12-05T01:36:36;5.00;99.90
32698;DHT22;19087;51.062;3.754;2022-12-05T01:39:11;5.20;99.90
32698;DHT22;19087;51.062;3.754;2022-12-05T01:41:42;5.30;99.90
32698;DHT22;19087;51.062;3.754;2022-12-05T01:46:51;5.10;99.90
32698;DHT22;19087;51.062;3.754;2022-12-05T01:49:26;5.10;99.90
32698;DHT22;19087;51.062;3.754;2022-12-05T01:51:57;5.20;99.90
32698;DHT22;19087;51.062;3.754;2022-12-05T01:54:28;5.30;99.90
32698;DHT22;19087;51.062;3.754;2022-12-05T01:57:00;5.30;99.90
32698;DHT22;19087;51.062;3.754;2022-12-05T01:59:29;5.30;99.90
32698;DHT22;19087;51.062;3.754;2022-12-05T02:01:56;5.30;99.90
32698;DHT22;19087;51.062;3.754;2022-12-05T02:04:22;5.40;99.90
32698;DHT22;19087;51.062;3.754;2022-12-05T02:06:50;5.50;99.90
32698;DHT22;19087;51.062;3.754;2022-12-05T02:09:17;5.30;99.90
32698;DHT22;19087;51.062;3.754;2022-12-05T02:11:50;5.50;99.90
32698;DHT22;19087;51.062;3.754;2022-12-05T02:14:44;5.50;99.90
32698;DHT22;19087;51.062;3.754;2022-12-05T02:17:37;5.50;99.90
32698;DHT22;19087;51.062;3.754;2022-12-05T02:28:34;5.20;99.90
32698;DHT22;19087;51.062;3.754;2022-12-05T02:31:32;5.20;99.90
32698;DHT22;19087;51.062;3.754;2022-12-05T02:36:53;5.30;99.90
32698;DHT22;19087;51.062;3.754;2022-12-05T02:42:17;5.30;99.90
32698;DHT22;19087;51.062;3.754;2022-12-05T02:44:56;5.40;99.90
32698;DHT22;19087;51.062;3.754;2022-12-05T02:47:28;5.40;99.90
32698;DHT22;19087;51.062;3.754;2022-12-05T02:49:56;5.40;99.90
32698;DHT22;19087;51.062;3.754;2022-12-05T02:52:24;5.40;99.90
32698;DHT22;19087;51.062;3.754;2022-12-05T02:54:53;5.30;99.90
32698;DHT22;19087;51.062;3.754;2022-12-05T02:57:22;5.20;99.90
32698;DHT22;19087;51.062;3.754;2022-12-05T02:59:50;5.40;99.90
32698;DHT22;19087;51.062;3.754;2022-12-05T03:02:30;5.10;99.90
32698;DHT22;19087;51.062;3.754;2022-12-05T03:07:55;5.00;99.90
32698;DHT22;19087;51.062;3.754;2022-12-05T03:10:26;4.90;99.90
32698;DHT22;19087;51.062;3.754;2022-12-05T03:12:59;5.00;99.90
32698;DHT22;19087;51.062;3.754;2022-12-05T03:15:32;5.00;99.90
32698;DHT22;19087;51.062;3.754;2022-12-05T03:18:08;5.00;99.90
32698;DHT22;19087;51.062;3.754;2022-12-05T03:23:50;5.30;99.90
32698;DHT22;19087;51.062;3.754;2022-12-05T03:31:51;5.40;99.90
32698;DHT22;19087;51.062;3.754;2022-12-05T03:34:48;5.30;99.90
32698;DHT22;19087;51.062;3.754;2022-12-05T03:51:37;5.10;99.90
32698;DHT22;19087;51.062;3.754;2022-12-05T03:56:51;5.10;99.90
32698;DHT22;19087;51.062;3.754;2022-12-05T03:59:34;5.20;99.90
32698;DHT22;19087;51.062;3.754;2022-12-05T04:02:07;5.30;99.90
32698;DHT22;19087;51.062;3.754;2022-12-05T04:04:38;5.30;99.90
32698;DHT22;19087;51.062;3.754;2022-12-05T04:07:10;5.40;99.90
32698;DHT22;19087;51.062;3.754;2022-12-05T04:09:52;5.30;99.90
32698;DHT22;19087;51.062;3.754;2022-12-05T04:12:23;5.30;99.90
32698;DHT22;19087;51.062;3.754;2022-12-05T04:14:56;5.30;99.90
32698;DHT22;19087;51.062;3.754;2022-12-05T04:17:48;5.40;99.90
32698;DHT22;19087;51.062;3.754;2022-12-05T04:20:38;5.40;99.90
32698;DHT22;19087;51.062;3.754;2022-12-05T04:23:24;5.30;99.90
32698;DHT22;19087;51.062;3.754;2022-12-05T04:26:28;5.30;99.90
32698;DHT22;19087;51.062;3.754;2022-12-05T04:29:29;5.30;99.90
32698;DHT22;19087;51.062;3.754;2022-12-05T04:32:02;5.30;99.90
32698;DHT22;19087;51.062;3.754;2022-12-05T04:34:30;5.20;99.90
32698;DHT22;19087;51.062;3.754;2022-12-05T04:37:05;5.20;99.90
32698;DHT22;19087;51.062;3.754;2022-12-05T04:39:58;5.30;99.90
32698;DHT22;19087;51.062;3.754;2022-12-05T04:42:28;5.30;99.90
32698;DHT22;19087;51.062;3.754;2022-12-05T04:45:09;5.30;99.90
32698;DHT22;19087;51.062;3.754;2022-12-05T04:47:40;5.30;99.90
32698;DHT22;19087;51.062;3.754;2022-12-05T04:50:12;5.30;99.90
32698;DHT22;19087;51.062;3.754;2022-12-05T04:52:39;5.30;99.90
32698;DHT22;19087;51.062;3.754;2022-12-05T04:55:13;5.30;99.90
32698;DHT22;19087;51.062;3.754;2022-12-05T04:57:51;5.30;99.90
32698;DHT22;19087;51.062;3.754;2022-12-05T05:00:18;5.30;99.90
32698;DHT22;19087;51.062;3.754;2022-12-05T05:03:00;5.40;99.90
32698;DHT22;19087;51.062;3.754;2022-12-05T05:05:46;5.40;99.90
32698;DHT22;19087;51.062;3.754;2022-12-05T05:08:25;5.40;99.90
32698;DHT22;19087;51.062;3.754;2022-12-05T05:13:39;5.50;99.90
32698;DHT22;19087;51.062;3.754;2022-12-05T05:16:06;5.50;99.90
32698;DHT22;19087;51.062;3.754;2022-12-05T05:18:33;5.40;99.90
32698;DHT22;19087;51.062;3.754;2022-12-05T05:20:59;5.30;99.90
32698;DHT22;19087;51.062;3.754;2022-12-05T05:23:26;5.20;99.90
32698;DHT22;19087;51.062;3.754;2022-12-05T05:25:54;5.30;99.90
32698;DHT22;19087;51.062;3.754;2022-12-05T05:28:20;5.40;99.90
32698;DHT22;19087;51.062;3.754;2022-12-05T05:30:46;5.40;99.90
32698;DHT22;19087;51.062;3.754;2022-12-05T05:33:11;5.50;99.90
32698;DHT22;19087;51.062;3.754;2022-12-05T05:35:38;5.50;99.90
32698;DHT22;19087;51.062;3.754;2022-12-05T05:38:04;5.40;99.90
32698;DHT22;19087;51.062;3.754;2022-12-05T05:40:30;5.50;99.90
32698;DHT22;19087;51.062;3.754;2022-12-05T05:42:56;5.50;99.90
32698;DHT22;19087;51.062;3.754;2022-12-05T05:45:25;5.70;99.90
32698;DHT22;19087;51.062;3.754;2022-12-05T05:47:51;5.60;99.90
32698;DHT22;19087;51.062;3.754;2022-12-05T05:50:16;5.60;99.90
32698;DHT22;19087;51.062;3.754;2022-12-05T05:52:42;5.50;99.90
32698;DHT22;19087;51.062;3.754;2022-12-05T05:55:10;5.50;99.90
32698;DHT22;19087;51.062;3.754;2022-12-05T05:57:37;5.50;99.90
32698;DHT22;19087;51.062;3.754;2022-12-05T06:00:17;5.50;99.90
32698;DHT22;19087;51.062;3.754;2022-12-05T06:02:44;5.50;99.90
32698;DHT22;19087;51.062;3.754;2022-12-05T06:05:10;5.60;99.90
32698;DHT22;19087;51.062;3.754;2022-12-05T06:07:36;5.70;99.90
32698;DHT22;19087;51.062;3.754;2022-12-05T06:10:03;5.70;99.90
32698;DHT22;19087;51.062;3.754;2022-12-05T06:12:30;5.70;99.90
32698;DHT22;19087;51.062;3.754;2022-12-05T06:14:56;5.60;99.90
32698;DHT22;19087;51.062;3.754;2022-12-05T06:17:22;5.80;99.90
32698;DHT22;19087;51.062;3.754;2022-12-05T06:19:48;5.70;99.90
32698;DHT22;19087;51.062;3.754;2022-12-05T06:22:21;5.80;99.90
32698;DHT22;19087;51.062;3.754;2022-12-05T06:24:47;5.80;99.90
32698;DHT22;19087;51.062;3.754;2022-12-05T06:27:15;5.80;99.90
32698;DHT22;19087;51.062;3.754;2022-12-05T06:29:40;5.80;99.90
32698;DHT22;19087;51.062;3.754;2022-12-05T06:32:07;5.80;99.90
32698;DHT22;19087;51.062;3.754;2022-12-05T06:34:35;5.70;99.90
32698;DHT22;19087;51.062;3.754;2022-12-05T06:37:01;5.70;99.90
32698;DHT22;19087;51.062;3.754;2022-12-05T06:39:28;5.80;99.90
32698;DHT22;19087;51.062;3.754;2022-12-05T06:41:56;5.90;99.90
32698;DHT22;19087;51.062;3.754;2022-12-05T06:44:22;5.90;99.90
32698;DHT22;19087;51.062;3.754;2022-12-05T06:46:54;5.80;99.90
32698;DHT22;19087;51.062;3.754;2022-12-05T06:49:23;5.90;99.90
32698;DHT22;19087;51.062;3.754;2022-12-05T06:52:00;5.90;99.90
32698;DHT22;19087;51.062;3.754;2022-12-05T06:54:25;5.80;99.90
32698;DHT22;19087;51.062;3.754;2022-12-05T06:56:57;5.90;99.90
32698;DHT22;19087;51.062;3.754;2022-12-05T06:59:28;5.90;99.90
32698;DHT22;19087;51.062;3.754;2022-12-05T07:01:56;5.90;99.90
32698;DHT22;19087;51.062;3.754;2022-12-05T07:04:22;6.00;99.90
32698;DHT22;19087;51.062;3.754;2022-12-05T07:06:52;6.10;99.90
32698;DHT22;19087;51.062;3.754;2022-12-05T07:09:20;6.00;99.90
32698;DHT22;19087;51.062;3.754;2022-12-05T07:11:48;6.00;99.90
32698;DHT22;19087;51.062;3.754;2022-12-05T07:14:33;6.00;99.90
32698;DHT22;19087;51.062;3.754;2022-12-05T07:17:01;6.00;99.90
32698;DHT22;19087;51.062;3.754;2022-12-05T07:19:27;5.90;99.90
32698;DHT22;19087;51.062;3.754;2022-12-05T07:21:52;6.10;99.90
32698;DHT22;19087;51.062;3.754;2022-12-05T07:24:18;6.10;99.90
32698;DHT22;19087;51.062;3.754;2022-12-05T07:26:44;6.10;99.90
32698;DHT22;19087;51.062;3.754;2022-12-05T07:29:09;6.10;99.90
32698;DHT22;19087;51.062;3.754;2022-12-05T07:31:35;6.10;99.90
32698;DHT22;19087;51.062;3.754;2022-12-05T07:34:01;6.00;99.90
32698;DHT22;19087;51.062;3.754;2022-12-05T07:36:27;6.10;99.90
32698;DHT22;19087;51.062;3.754;2022-12-05T07:38:55;6.20;99.90
32698;DHT22;19087;51.062;3.754;2022-12-05T07:41:23;6.20;99.90
32698;DHT22;19087;51.062;3.754;2022-12-05T07:43:50;6.30;99.90
32698;DHT22;19087;51.062;3.754;2022-12-05T07:46:16;6.30;99.90
32698;DHT22;19087;51.062;3.754;2022-12-05T07:48:42;6.20;99.90
32698;DHT22;19087;51.062;3.754;2022-12-05T07:51:08;6.10;99.90
32698;DHT22;19087;51.062;3.754;2022-12-05T07:53:35;6.10;99.90
32698;DHT22;19087;51.062;3.754;2022-12-05T07:56:03;6.30;99.90
32698;DHT22;19087;51.062;3.754;2022-12-05T07:58:29;6.40;99.90
32698;DHT22;19087;51.062;3.754;2022-12-05T08:00:55;6.20;99.90
32698;DHT22;19087;51.062;3.754;2022-12-05T08:03:21;6.10;99.90
32698;DHT22;19087;51.062;3.754;2022-12-05T08:05:47;6.10;99.90
32698;DHT22;19087;51.062;3.754;2022-12-05T08:08:12;6.20;99.90
32698;DHT22;19087;51.062;3.754;2022-12-05T08:10:38;6.20;99.90
32698;DHT22;19087;51.062;3.754;2022-12-05T08:13:04;6.20;99.90
32698;DHT22;19087;51.062;3.754;2022-12-05T08:15:29;6.20;99.90
32698;DHT22;19087;51.062;3.754;2022-12-05T08:17:55;6.30;99.90
32698;DHT22;19087;51.062;3.754;2022-12-05T08:20:21;6.30;99.90
32698;DHT22;19087;51.062;3.754;2022-12-05T08:22:51;6.40;99.90
32698;DHT22;19087;51.062;3.754;2022-12-05T08:25:17;6.30;99.90
32698;DHT22;19087;51.062;3.754;2022-12-05T08:27:42;6.30;99.90
32698;DHT22;19087;51.062;3.754;2022-12-05T08:30:08;6.30;99.90
32698;DHT22;19087;51.062;3.754;2022-12-05T08:32:34;6.40;99.90
32698;DHT22;19087;51.062;3.754;2022-12-05T08:34:59;6.30;99.90
32698;DHT22;19087;51.062;3.754;2022-12-05T08:37:26;6.50;99.90
32698;DHT22;19087;51.062;3.754;2022-12-05T08:39:51;6.50;99.90
32698;DHT22;19087;51.062;3.754;2022-12-05T08:42:17;6.50;99.90
32698;DHT22;19087;51.062;3.754;2022-12-05T08:44:43;6.50;99.90
32698;DHT22;19087;51.062;3.754;2022-12-05T08:47:08;6.50;99.90
32698;DHT22;19087;51.062;3.754;2022-12-05T08:49:34;6.50;99.90
32698;DHT22;19087;51.062;3.754;2022-12-05T08:51:59;6.60;99.90
32698;DHT22;19087;51.062;3.754;2022-12-05T08:54:25;6.70;99.90
32698;DHT22;19087;51.062;3.754;2022-12-05T08:56:52;6.60;99.90
32698;DHT22;19087;51.062;3.754;2022-12-05T08:59:18;6.60;99.90
32698;DHT22;19087;51.062;3.754;2022-12-05T09:01:44;6.70;99.90
32698;DHT22;19087;51.062;3.754;2022-12-05T09:04:10;6.60;99.90
32698;DHT22;19087;51.062;3.754;2022-12-05T09:06:36;6.80;99.90
32698;DHT22;19087;51.062;3.754;2022-12-05T09:09:08;6.80;99.90
32698;DHT22;19087;51.062;3.754;2022-12-05T09:11:39;6.80;99.90
32698;DHT22;19087;51.062;3.754;2022-12-05T09:14:06;6.90;99.90
32698;DHT22;19087;51.062;3.754;2022-12-05T09:16:34;7.00;99.90
32698;DHT22;19087;51.062;3.754;2022-12-05T09:19:00;7.00;99.90
32698;DHT22;19087;51.062;3.754;2022-12-05T09:21:28;7.10;99.90
32698;DHT22;19087;51.062;3.754;2022-12-05T09:23:54;7.00;99.90
32698;DHT22;19087;51.062;3.754;2022-12-05T09:26:22;7.10;99.90
32698;DHT22;19087;51.062;3.754;2022-12-05T09:28:49;7.10;99.90
32698;DHT22;19087;51.062;3.754;2022-12-05T09:31:20;7.20;99.90
32698;DHT22;19087;51.062;3.754;2022-12-05T09:33:47;7.30;99.90
32698;DHT22;19087;51.062;3.754;2022-12-05T09:38:42;7.20;99.90
32698;DHT22;19087;51.062;3.754;2022-12-05T09:50:22;6.40;99.90
32698;DHT22;19087;51.062;3.754;2022-12-05T09:53:16;6.40;99.90
32698;DHT22;19087;51.062;3.754;2022-12-05T09:58:39;6.90;99.90
32698;DHT22;19087;51.062;3.754;2022-12-05T10:01:41;6.90;99.90
32698;DHT22;19087;51.062;3.754;2022-12-05T10:04:15;6.80;99.90
32698;DHT22;19087;51.062;3.754;2022-12-05T10:15:16;6.70;99.90
32698;DHT22;19087;51.062;3.754;2022-12-05T10:17:44;6.80;99.90
32698;DHT22;19087;51.062;3.754;2022-12-05T10:20:12;6.80;99.90
32698;DHT22;19087;51.062;3.754;2022-12-05T10:22:45;7.00;99.90
32698;DHT22;19087;51.062;3.754;2022-12-05T10:25:16;7.00;99.90
32698;DHT22;19087;51.062;3.754;2022-12-05T10:27:50;7.10;99.90
32698;DHT22;19087;51.062;3.754;2022-12-05T10:35:18;7.00;99.90
32698;DHT22;19087;51.062;3.754;2022-12-05T10:37:47;7.00;99.90
32698;DHT22;19087;51.062;3.754;2022-12-05T10:40:15;7.00;99.90
32698;DHT22;19087;51.062;3.754;2022-12-05T10:42:41;7.10;99.90
32698;DHT22;19087;51.062;3.754;2022-12-05T10:45:14;7.20;99.90
32698;DHT22;19087;51.062;3.754;2022-12-05T10:47:40;7.30;99.90
32698;DHT22;19087;51.062;3.754;2022-12-05T10:50:23;7.60;99.90
32698;DHT22;19087;51.062;3.754;2022-12-05T10:52:50;7.80;99.90
32698;DHT22;19087;51.062;3.754;2022-12-05T10:55:17;7.90;99.90
32698;DHT22;19087;51.062;3.754;2022-12-05T10:57:49;7.90;99.90
32698;DHT22;19087;51.062;3.754;2022-12-05T11:00:15;7.80;99.90
32698;DHT22;19087;51.062;3.754;2022-12-05T11:02:46;7.70;99.90
32698;DHT22;19087;51.062;3.754;2022-12-05T11:05:13;7.50;99.90
32698;DHT22;19087;51.062;3.754;2022-12-05T11:07:47;7.40;99.90
32698;DHT22;19087;51.062;3.754;2022-12-05T11:10:35;7.30;99.90
32698;DHT22;19087;51.062;3.754;2022-12-05T11:13:21;7.30;99.90
32698;DHT22;19087;51.062;3.754;2022-12-05T11:15:48;7.30;99.90
32698;DHT22;19087;51.062;3.754;2022-12-05T11:18:25;7.40;99.90
32698;DHT22;19087;51.062;3.754;2022-12-05T11:20:52;7.40;99.90
32698;DHT22;19087;51.062;3.754;2022-12-05T11:23:22;7.40;99.90
32698;DHT22;19087;51.062;3.754;2022-12-05T11:25:48;7.50;99.90
32698;DHT22;19087;51.062;3.754;2022-12-05T11:30:59;7.70;99.90
32698;DHT22;19087;51.062;3.754;2022-12-05T11:33:27;7.90;99.90
32698;DHT22;19087;51.062;3.754;2022-12-05T11:35:55;7.90;99.90
32698;DHT22;19087;51.062;3.754;2022-12-05T11:38:26;7.90;99.90
32698;DHT22;19087;51.062;3.754;2022-12-05T11:40:57;7.90;99.90
32698;DHT22;19087;51.062;3.754;2022-12-05T11:43:38;7.90;99.90
32698;DHT22;19087;51.062;3.754;2022-12-05T11:49:14;8.00;99.90
32698;DHT22;19087;51.062;3.754;2022-12-05T11:52:00;8.00;99.90
32698;DHT22;19087;51.062;3.754;2022-12-05T11:54:46;8.00;99.90
32698;DHT22;19087;51.062;3.754;2022-12-05T11:57:34;8.10;99.90
32698;DHT22;19087;51.062;3.754;2022-12-05T12:02:49;8.20;99.90
32698;DHT22;19087;51.062;3.754;2022-12-05T12:05:42;8.20;99.90
32698;DHT22;19087;51.062;3.754;2022-12-05T12:08:29;8.20;99.90
32698;DHT22;19087;51.062;3.754;2022-12-05T12:13:27;8.30;99.90
32698;DHT22;19087;51.062;3.754;2022-12-05T12:30:23;7.50;99.90
32698;DHT22;19087;51.062;3.754;2022-12-05T12:33:04;7.60;99.90
32698;DHT22;19087;51.062;3.754;2022-12-05T12:36:14;7.80;99.90
32698;DHT22;19087;51.062;3.754;2022-12-05T12:52:08;8.30;99.90
32698;DHT22;19087;51.062;3.754;2022-12-05T12:54:48;8.30;99.90
32698;DHT22;19087;51.062;3.754;2022-12-05T12:57:25;8.20;99.90
32698;DHT22;19087;51.062;3.754;2022-12-05T13:02:33;8.10;99.90
32698;DHT22;19087;51.062;3.754;2022-12-05T13:05:14;8.20;99.90
32698;DHT22;19087;51.062;3.754;2022-12-05T13:07:50;8.20;99.90
32698;DHT22;19087;51.062;3.754;2022-12-05T13:10:47;8.20;99.90
32698;DHT22;19087;51.062;3.754;2022-12-05T13:13:18;8.10;99.90
32698;DHT22;19087;51.062;3.754;2022-12-05T13:15:50;8.00;99.90
32698;DHT22;19087;51.062;3.754;2022-12-05T13:18:22;7.90;99.90
32698;DHT22;19087;51.062;3.754;2022-12-05T13:20:56;7.80;99.90
32698;DHT22;19087;51.062;3.754;2022-12-05T13:23:31;7.80;99.90
32698;DHT22;19087;51.062;3.754;2022-12-05T13:25:59;7.90;99.90
32698;DHT22;19087;51.062;3.754;2022-12-05T13:30:58;8.10;99.90
32698;DHT22;19087;51.062;3.754;2022-12-05T13:36:20;8.10;99.90
32698;DHT22;19087;51.062;3.754;2022-12-05T13:41:57;8.30;99.90
32698;DHT22;19087;51.062;3.754;2022-12-05T13:44:47;8.20;99.90
32698;DHT22;19087;51.062;3.754;2022-12-05T13:47:36;8.30;99.90
32698;DHT22;19087;51.062;3.754;2022-12-05T13:56:45;8.20;99.90
32698;DHT22;19087;51.062;3.754;2022-12-05T13:58:56;8.20;99.90
32698;DHT22;19087;51.062;3.754;2022-12-05T14:09:01;8.10;99.90
32698;DHT22;19087;51.062;3.754;2022-12-05T14:11:27;8.10;99.90
32698;DHT22;19087;51.062;3.754;2022-12-05T14:13:54;8.20;99.90
32698;DHT22;19087;51.062;3.754;2022-12-05T14:26:57;8.10;99.90
32698;DHT22;19087;51.062;3.754;2022-12-05T14:32:34;8.20;99.90
32698;DHT22;19087;51.062;3.754;2022-12-05T14:35:14;7.90;99.90
32698;DHT22;19087;51.062;3.754;2022-12-05T14:37:53;7.90;99.90
32698;DHT22;19087;51.062;3.754;2022-12-05T14:50:46;8.10;99.90
32698;DHT22;19087;51.062;3.754;2022-12-05T14:53:30;8.10;99.90
32698;DHT22;19087;51.062;3.754;2022-12-05T14:56:09;8.20;99.90
32698;DHT22;19087;51.062;3.754;2022-12-05T15:04:02;8.30;99.90
32698;DHT22;19087;51.062;3.754;2022-12-05T15:06:28;8.30;99.90
32698;DHT22;19087;51.062;3.754;2022-12-05T15:08:57;8.30;99.90
32698;DHT22;19087;51.062;3.754;2022-12-05T15:11:26;8.30;99.90
32698;DHT22;19087;51.062;3.754;2022-12-05T15:14:17;8.10;99.90
32698;DHT22;19087;51.062;3.754;2022-12-05T15:16:44;8.10;99.90
32698;DHT22;19087;51.062;3.754;2022-12-05T15:19:20;8.10;99.90
32698;DHT22;19087;51.062;3.754;2022-12-05T15:21:53;8.10;99.90
32698;DHT22;19087;51.062;3.754;2022-12-05T15:24:21;8.10;99.90
32698;DHT22;19087;51.062;3.754;2022-12-05T15:26:55;8.20;99.90
32698;DHT22;19087;51.062;3.754;2022-12-05T15:34:29;8.30;99.90
32698;DHT22;19087;51.062;3.754;2022-12-05T15:39:57;8.30;99.90
32698;DHT22;19087;51.062;3.754;2022-12-05T15:42:28;8.40;99.90
32698;DHT22;19087;51.062;3.754;2022-12-05T15:45:13;8.40;99.90
32698;DHT22;19087;51.062;3.754;2022-12-05T15:47:48;8.30;99.90
32698;DHT22;19087;51.062;3.754;2022-12-05T15:53:14;8.30;99.90
32698;DHT22;19087;51.062;3.754;2022-12-05T15:58:24;8.40;99.90
32698;DHT22;19087;51.062;3.754;2022-12-05T16:06:13;8.40;99.90
32698;DHT22;19087;51.062;3.754;2022-12-05T16:08:44;8.30;99.90
32698;DHT22;19087;51.062;3.754;2022-12-05T16:11:10;8.40;99.90
32698;DHT22;19087;51.062;3.754;2022-12-05T16:13:49;8.40;99.90
32698;DHT22;19087;51.062;3.754;2022-12-05T16:16:18;8.50;99.90
32698;DHT22;19087;51.062;3.754;2022-12-05T16:19:18;8.40;99.90
32698;DHT22;19087;51.062;3.754;2022-12-05T16:22:18;8.40;99.90
32698;DHT22;19087;51.062;3.754;2022-12-05T16:27:25;8.30;99.90
32698;DHT22;19087;51.062;3.754;2022-12-05T16:32:43;8.30;99.90
32698;DHT22;19087;51.062;3.754;2022-12-05T16:35:32;8.30;99.90
32698;DHT22;19087;51.062;3.754;2022-12-05T16:38:17;8.40;99.90
32698;DHT22;19087;51.062;3.754;2022-12-05T16:43:40;8.40;99.90
32698;DHT22;19087;51.062;3.754;2022-12-05T16:48:41;8.40;99.90
32698;DHT22;19087;51.062;3.754;2022-12-05T16:51:17;8.40;99.90
32698;DHT22;19087;51.062;3.754;2022-12-05T16:53:50;8.40;99.90
32698;DHT22;19087;51.062;3.754;2022-12-05T16:56:29;8.50;99.90
32698;DHT22;19087;51.062;3.754;2022-12-05T16:58:55;8.40;99.90
32698;DHT22;19087;51.062;3.754;2022-12-05T17:01:24;8.50;99.90
32698;DHT22;19087;51.062;3.754;2022-12-05T17:03:50;8.70;99.90
32698;DHT22;19087;51.062;3.754;2022-12-05T17:06:18;8.60;99.90
32698;DHT22;19087;51.062;3.754;2022-12-05T17:08:46;8.60;99.90
32698;DHT22;19087;51.062;3.754;2022-12-05T17:11:28;8.60;99.90
32698;DHT22;19087;51.062;3.754;2022-12-05T17:13:55;8.50;99.90
32698;DHT22;19087;51.062;3.754;2022-12-05T17:16:21;8.40;99.90
32698;DHT22;19087;51.062;3.754;2022-12-05T17:18:47;8.40;99.90
32698;DHT22;19087;51.062;3.754;2022-12-05T17:21:16;8.40;99.90
32698;DHT22;19087;51.062;3.754;2022-12-05T17:23:43;8.40;99.90
32698;DHT22;19087;51.062;3.754;2022-12-05T17:26:12;8.30;99.90
32698;DHT22;19087;51.062;3.754;2022-12-05T17:28:38;8.20;99.90
32698;DHT22;19087;51.062;3.754;2022-12-05T17:31:05;8.30;99.90
32698;DHT22;19087;51.062;3.754;2022-12-05T17:33:31;8.50;99.90
32698;DHT22;19087;51.062;3.754;2022-12-05T17:35:59;8.40;99.90
32698;DHT22;19087;51.062;3.754;2022-12-05T17:38:24;8.60;99.90
32698;DHT22;19087;51.062;3.754;2022-12-05T17:40:50;8.60;99.90
32698;DHT22;19087;51.062;3.754;2022-12-05T17:43:16;8.70;99.90
32698;DHT22;19087;51.062;3.754;2022-12-05T17:45:42;8.70;99.90
32698;DHT22;19087;51.062;3.754;2022-12-05T17:48:12;8.70;99.90
32698;DHT22;19087;51.062;3.754;2022-12-05T17:50:39;8.70;99.90
32698;DHT22;19087;51.062;3.754;2022-12-05T17:53:13;8.60;99.90
32698;DHT22;19087;51.062;3.754;2022-12-05T17:55:39;8.60;99.90
32698;DHT22;19087;51.062;3.754;2022-12-05T17:58:05;8.60;99.90
32698;DHT22;19087;51.062;3.754;2022-12-05T18:00:31;8.60;99.90
32698;DHT22;19087;51.062;3.754;2022-12-05T18:02:56;8.60;99.90
32698;DHT22;19087;51.062;3.754;2022-12-05T18:05:22;8.60;99.90
32698;DHT22;19087;51.062;3.754;2022-12-05T18:07:49;8.60;99.90
32698;DHT22;19087;51.062;3.754;2022-12-05T18:10:17;8.50;99.90
32698;DHT22;19087;51.062;3.754;2022-12-05T18:12:44;8.50;99.90
32698;DHT22;19087;51.062;3.754;2022-12-05T18:15:10;8.50;99.90
32698;DHT22;19087;51.062;3.754;2022-12-05T18:17:36;8.60;99.90
32698;DHT22;19087;51.062;3.754;2022-12-05T18:20:02;8.60;99.90
32698;DHT22;19087;51.062;3.754;2022-12-05T18:22:28;8.40;99.90
32698;DHT22;19087;51.062;3.754;2022-12-05T18:24:54;8.50;99.90
32698;DHT22;19087;51.062;3.754;2022-12-05T18:27:21;8.60;99.90
32698;DHT22;19087;51.062;3.754;2022-12-05T18:29:47;8.70;99.90
32698;DHT22;19087;51.062;3.754;2022-12-05T18:32:13;8.70;99.90
32698;DHT22;19087;51.062;3.754;2022-12-05T18:34:39;8.80;99.90
32698;DHT22;19087;51.062;3.754;2022-12-05T18:37:04;8.70;99.90
32698;DHT22;19087;51.062;3.754;2022-12-05T18:39:30;8.50;99.90
32698;DHT22;19087;51.062;3.754;2022-12-05T18:41:56;8.60;99.90
32698;DHT22;19087;51.062;3.754;2022-12-05T18:44:21;8.50;99.90
32698;DHT22;19087;51.062;3.754;2022-12-05T18:46:47;8.50;99.90
32698;DHT22;19087;51.062;3.754;2022-12-05T18:49:13;8.70;99.90
32698;DHT22;19087;51.062;3.754;2022-12-05T18:51:38;8.50;99.90
32698;DHT22;19087;51.062;3.754;2022-12-05T18:54:04;8.50;99.90
32698;DHT22;19087;51.062;3.754;2022-12-05T18:56:32;8.50;99.90
32698;DHT22;19087;51.062;3.754;2022-12-05T18:59:17;8.50;99.90
32698;DHT22;19087;51.062;3.754;2022-12-05T19:01:43;8.60;99.90
32698;DHT22;19087;51.062;3.754;2022-12-05T19:04:12;8.30;99.90
32698;DHT22;19087;51.062;3.754;2022-12-05T19:06:40;8.30;99.90
32698;DHT22;19087;51.062;3.754;2022-12-05T19:09:13;8.30;99.90
32698;DHT22;19087;51.062;3.754;2022-12-05T19:11:46;8.30;99.90
32698;DHT22;19087;51.062;3.754;2022-12-05T19:14:13;8.30;99.90
32698;DHT22;19087;51.062;3.754;2022-12-05T19:16:38;8.40;99.90
32698;DHT22;19087;51.062;3.754;2022-12-05T19:19:06;8.40;99.90
32698;DHT22;19087;51.062;3.754;2022-12-05T19:21:34;8.50;99.90
32698;DHT22;19087;51.062;3.754;2022-12-05T19:24:01;8.30;99.90
32698;DHT22;19087;51.062;3.754;2022-12-05T19:26:26;8.40;99.90
32698;DHT22;19087;51.062;3.754;2022-12-05T19:28:52;8.40;99.90